createdAt,value
2018-09-27T00:01:45.318Z,66.20
2018-09-27T00:04:13.593Z,66.30
2018-09-27T00:06:42.064Z,66.60
2018-09-27T00:09:10.322Z,67.00
2018-09-27T00:11:38.630Z,67.20
2018-09-27T00:14:07.367Z,67.50
2018-09-27T00:16:35.610Z,67.30
2018-09-27T00:19:04.229Z,67.40
2018-09-27T00:21:32.548Z,67.20
2018-09-27T00:24:01.144Z,67.00
2018-09-27T00:26:29.520Z,66.80
2018-09-27T00:28:57.798Z,66.50
2018-09-27T00:31:26.066Z,66.30
2018-09-27T00:33:54.468Z,65.70
2018-09-27T00:36:22.732Z,65.70
2018-09-27T00:38:51.151Z,65.80
2018-09-27T00:41:19.398Z,65.60
2018-09-27T00:43:48.153Z,66.00
2018-09-27T00:46:16.441Z,66.70
2018-09-27T00:48:44.914Z,66.80
2018-09-27T00:51:13.302Z,66.60
2018-09-27T00:53:41.742Z,66.70
2018-09-27T00:56:09.964Z,66.70
2018-09-27T00:58:38.238Z,66.60
2018-09-27T01:01:06.626Z,67.50
2018-09-27T01:03:34.953Z,68.00
2018-09-27T01:06:03.228Z,68.30
2018-09-27T01:08:31.534Z,68.10
2018-09-27T01:10:59.799Z,68.70
2018-09-27T01:13:28.142Z,67.80
2018-09-27T01:15:56.428Z,67.50
2018-09-27T01:18:26.676Z,67.50
2018-09-27T01:20:54.992Z,67.40
2018-09-27T01:23:23.253Z,67.70
2018-09-27T01:25:51.526Z,67.40
2018-09-27T01:28:19.790Z,67.50
2018-09-27T01:30:48.081Z,67.30
2018-09-27T01:33:16.355Z,67.30
2018-09-27T01:35:44.681Z,67.70
2018-09-27T01:38:12.894Z,67.40
2018-09-27T01:40:41.259Z,67.60
2018-09-27T01:43:09.468Z,67.60
2018-09-27T01:45:37.939Z,67.30
2018-09-27T01:48:06.282Z,66.70
2018-09-27T01:50:34.850Z,67.00
2018-09-27T01:53:03.100Z,66.40
2018-09-27T01:55:31.518Z,66.20
2018-09-27T01:57:59.784Z,66.10
2018-09-27T02:00:28.431Z,65.90
2018-09-27T02:02:56.789Z,66.90
2018-09-27T02:05:25.377Z,66.20
2018-09-27T02:07:54.122Z,66.20
2018-09-27T02:10:22.612Z,66.30
2018-09-27T02:12:50.862Z,66.40
2018-09-27T02:15:19.182Z,66.70
2018-09-27T02:17:47.667Z,66.40
2018-09-27T02:20:15.942Z,66.60
2018-09-27T02:22:44.217Z,66.70
2018-09-27T02:25:12.831Z,67.10
2018-09-27T02:27:41.048Z,67.60
2018-09-27T02:30:10.166Z,68.50
2018-09-27T02:32:38.421Z,68.20
2018-09-27T02:35:06.731Z,68.50
2018-09-27T02:37:35.005Z,68.90
2018-09-27T02:40:03.414Z,68.80
2018-09-27T02:42:32.289Z,68.60
2018-09-27T02:45:00.648Z,69.10
2018-09-27T02:47:28.930Z,70.20
2018-09-27T02:49:57.396Z,69.20
2018-09-27T02:52:25.666Z,69.20
2018-09-27T02:54:54.153Z,69.10
2018-09-27T02:57:22.746Z,69.10
2018-09-27T02:59:51.218Z,69.10
2018-09-27T03:02:19.514Z,69.20
2018-09-27T03:04:48.298Z,69.40
2018-09-27T03:07:16.562Z,70.00
2018-09-27T03:09:44.918Z,69.50
2018-09-27T03:12:13.169Z,69.70
2018-09-27T03:14:41.573Z,69.60
2018-09-27T03:17:09.901Z,69.30
2018-09-27T03:19:41.442Z,68.90
2018-09-27T03:22:09.722Z,69.20
2018-09-27T03:24:37.950Z,69.30
2018-09-27T03:27:06.545Z,69.20
2018-09-27T03:29:34.860Z,68.80
2018-09-27T03:32:03.469Z,68.70
2018-09-27T03:34:31.849Z,68.60
2018-09-27T03:37:00.272Z,69.50
2018-09-27T03:39:28.538Z,69.70
2018-09-27T03:41:56.900Z,69.50
2018-09-27T03:44:25.173Z,69.50
2018-09-27T03:46:54.183Z,69.20
2018-09-27T03:49:22.470Z,68.70
2018-09-27T03:51:50.870Z,68.60
2018-09-27T03:54:19.144Z,68.50
2018-09-27T03:56:47.432Z,68.40
2018-09-27T03:59:15.703Z,68.10
2018-09-27T04:01:44.305Z,67.80
2018-09-27T04:04:12.618Z,67.70
2018-09-27T04:06:41.055Z,67.60
2018-09-27T04:09:10.296Z,67.50
2018-09-27T04:11:38.787Z,67.10
2018-09-27T04:14:07.270Z,67.10
2018-09-27T04:16:35.587Z,67.10
2018-09-27T04:19:04.090Z,67.30
2018-09-27T04:21:32.330Z,67.70
2018-09-27T04:24:00.674Z,68.00
2018-09-27T04:26:29.086Z,67.90
2018-09-27T04:28:57.355Z,68.20
2018-09-27T04:31:26.418Z,67.90
2018-09-27T04:33:54.834Z,68.00
2018-09-27T04:36:23.062Z,68.60
2018-09-27T04:38:51.498Z,69.00
2018-09-27T04:41:19.852Z,69.00
2018-09-27T04:43:48.342Z,69.00
2018-09-27T04:46:16.743Z,70.10
2018-09-27T04:48:45.545Z,70.20
2018-09-27T04:51:14.015Z,71.10
2018-09-27T04:53:42.462Z,70.60
2018-09-27T04:56:11.183Z,70.10
2018-09-27T04:58:39.741Z,69.70
2018-09-27T05:01:08.041Z,69.30
2018-09-27T05:03:36.664Z,69.50
2018-09-27T05:06:05.008Z,70.10
2018-09-27T05:08:33.352Z,70.20
2018-09-27T05:11:02.089Z,70.40
2018-09-27T05:13:30.420Z,70.60
2018-09-27T05:15:58.763Z,70.80
2018-09-27T05:18:27.039Z,70.60
2018-09-27T05:20:55.894Z,70.80
2018-09-27T05:23:24.334Z,70.80
2018-09-27T05:25:54.189Z,70.70
2018-09-27T05:28:22.702Z,70.40
2018-09-27T05:30:51.152Z,70.70
2018-09-27T05:33:20.605Z,71.10
2018-09-27T05:35:49.038Z,70.90
2018-09-27T05:38:17.910Z,70.80
2018-09-27T05:40:46.403Z,70.80
2018-09-27T05:43:15.312Z,70.50
2018-09-27T05:45:43.689Z,70.20
2018-09-27T05:48:12.051Z,69.90
2018-09-27T05:50:40.592Z,69.40
2018-09-27T05:53:09.191Z,69.20
2018-09-27T05:55:37.784Z,68.90
2018-09-27T05:58:06.972Z,68.70
2018-09-27T06:00:35.520Z,68.50
2018-09-27T06:03:03.834Z,68.90
2018-09-27T06:05:32.218Z,69.00
2018-09-27T06:08:00.518Z,69.40
2018-09-27T06:10:28.832Z,70.20
2018-09-27T06:12:57.171Z,69.90
2018-09-27T06:15:26.199Z,69.50
2018-09-27T06:17:54.638Z,69.50
2018-09-27T06:20:23.796Z,69.60
2018-09-27T06:22:52.154Z,69.60
2018-09-27T06:25:20.452Z,69.40
2018-09-27T06:27:48.783Z,69.00
2018-09-27T06:30:17.235Z,68.70
2018-09-27T06:32:45.605Z,67.80
2018-09-27T06:35:14.162Z,67.90
2018-09-27T06:37:42.877Z,66.80
2018-09-27T06:40:11.291Z,64.80
2018-09-27T06:42:39.571Z,62.10
2018-09-27T06:45:08.823Z,62.50
2018-09-27T06:47:37.185Z,61.40
2018-09-27T06:50:06.126Z,58.70
2018-09-27T06:52:34.453Z,57.10
2018-09-27T06:55:03.128Z,56.10
2018-09-27T06:57:31.917Z,55.20
2018-09-27T07:00:00.609Z,53.70
2018-09-27T07:02:29.034Z,52.20
2018-09-27T07:04:57.404Z,49.50
2018-09-27T07:07:25.790Z,48.50
2018-09-27T07:09:54.190Z,46.80
2018-09-27T07:12:23.194Z,45.80
2018-09-27T07:14:51.393Z,45.00
2018-09-27T07:17:19.693Z,43.70
2018-09-27T07:19:48.239Z,42.70
2018-09-27T07:22:16.605Z,41.20
2018-09-27T07:24:45.022Z,40.60
2018-09-27T07:27:13.415Z,40.50
2018-09-27T07:29:41.961Z,39.00
2018-09-27T07:32:10.326Z,37.90
2018-09-27T07:34:39.067Z,37.50
2018-09-27T07:37:07.377Z,36.60
2018-09-27T07:39:35.958Z,36.50
2018-09-27T07:42:04.681Z,36.00
2018-09-27T07:44:33.187Z,35.60
2018-09-27T07:47:01.501Z,35.50
2018-09-27T07:49:29.973Z,35.20
2018-09-27T07:51:58.277Z,34.70
2018-09-27T07:54:26.782Z,33.70
2018-09-27T07:56:55.116Z,33.60
2018-09-27T07:59:23.575Z,32.90
2018-09-27T08:01:51.882Z,32.10
2018-09-27T08:04:20.477Z,32.80
2018-09-27T08:06:48.764Z,32.50
2018-09-27T08:09:17.203Z,32.40
2018-09-27T08:11:45.518Z,32.80
2018-09-27T08:14:13.900Z,33.30
2018-09-27T08:16:42.329Z,32.80
2018-09-27T08:19:10.671Z,32.90
2018-09-27T08:21:39.144Z,32.50
2018-09-27T08:24:07.488Z,32.70
2018-09-27T08:26:36.142Z,31.80
2018-09-27T08:29:07.322Z,31.30
2018-09-27T08:31:35.665Z,31.10
2018-09-27T08:34:04.293Z,30.40
2018-09-27T08:36:32.569Z,30.60
2018-09-27T08:39:01.016Z,30.60
2018-09-27T08:41:29.306Z,30.00
2018-09-27T08:43:57.571Z,30.60
2018-09-27T08:46:25.854Z,30.30
2018-09-27T08:48:54.257Z,30.00
2018-09-27T08:51:22.674Z,30.10
2018-09-27T08:53:51.070Z,31.30
2018-09-27T08:56:19.667Z,30.70
2018-09-27T08:58:48.062Z,30.00
2018-09-27T09:01:16.569Z,30.40
2018-09-27T09:03:45.047Z,30.70
2018-09-27T09:06:13.480Z,30.90
2018-09-27T09:08:41.812Z,30.20
2018-09-27T09:11:10.193Z,29.70
2018-09-27T09:13:38.509Z,29.40
2018-09-27T09:16:08.526Z,29.30
2018-09-27T09:18:36.888Z,29.30
2018-09-27T09:21:05.825Z,29.60
2018-09-27T09:23:34.462Z,29.30
2018-09-27T09:26:02.752Z,29.60
2018-09-27T09:28:31.052Z,29.60
2018-09-27T09:30:59.620Z,29.50
2018-09-27T09:33:27.977Z,30.00
2018-09-27T09:35:56.351Z,30.00
2018-09-27T09:38:24.830Z,30.00
2018-09-27T09:40:53.222Z,29.80
2018-09-27T09:43:21.878Z,30.20
2018-09-27T09:45:50.781Z,29.60
2018-09-27T09:48:19.142Z,29.70
2018-09-27T09:50:47.780Z,29.00
2018-09-27T09:53:16.078Z,28.70
2018-09-27T09:55:44.536Z,28.60
2018-09-27T09:58:12.873Z,27.70
2018-09-27T10:00:41.433Z,28.20
2018-09-27T10:03:09.790Z,27.80
2018-09-27T10:05:38.219Z,28.00
2018-09-27T10:08:06.575Z,27.60
2018-09-27T10:10:34.983Z,27.40
2018-09-27T10:13:03.465Z,27.20
2018-09-27T10:15:31.749Z,27.30
2018-09-27T10:18:00.383Z,27.40
2018-09-27T10:20:28.753Z,27.60
2018-09-27T10:22:57.379Z,26.90
2018-09-27T10:25:25.808Z,26.50
2018-09-27T10:27:54.388Z,25.90
2018-09-27T10:30:22.736Z,26.10
2018-09-27T10:32:51.241Z,26.60
2018-09-27T10:35:19.575Z,26.60
2018-09-27T10:37:48.143Z,26.80
2018-09-27T10:40:16.413Z,26.70
2018-09-27T10:42:45.042Z,26.90
2018-09-27T10:45:13.412Z,27.60
2018-09-27T10:47:41.797Z,28.80
2018-09-27T10:50:10.077Z,29.10
2018-09-27T10:52:38.355Z,29.30
2018-09-27T10:55:06.746Z,29.20
2018-09-27T10:57:35.003Z,29.70
2018-09-27T11:00:03.666Z,29.60
2018-09-27T11:02:31.885Z,29.60
2018-09-27T11:05:00.463Z,30.40
2018-09-27T11:07:28.946Z,29.90
2018-09-27T11:09:57.193Z,29.90
2018-09-27T11:12:25.835Z,30.00
2018-09-27T11:14:54.110Z,29.90
2018-09-27T11:17:23.256Z,29.90
2018-09-27T11:19:51.542Z,29.60
2018-09-27T11:22:19.917Z,29.50
2018-09-27T11:24:48.191Z,29.60
2018-09-27T11:27:16.466Z,29.50
2018-09-27T11:29:49.982Z,29.20
2018-09-27T11:32:23.602Z,29.40
2018-09-27T11:34:52.130Z,29.40
2018-09-27T11:37:20.405Z,29.50
2018-09-27T11:39:48.648Z,29.10
2018-09-27T11:42:16.998Z,29.30
2018-09-27T11:44:45.187Z,29.40
2018-09-27T11:47:13.475Z,29.10
2018-09-27T11:49:41.948Z,29.50
2018-09-27T11:52:10.184Z,29.50
2018-09-27T11:54:38.610Z,29.50
2018-09-27T11:57:07.038Z,29.40
2018-09-27T11:59:35.283Z,29.10
2018-09-27T12:02:03.593Z,29.10
2018-09-27T12:04:31.861Z,29.30
2018-09-27T12:07:00.235Z,28.90
2018-09-27T12:09:28.634Z,29.30
2018-09-27T12:11:58.060Z,28.90
2018-09-27T12:14:27.061Z,29.70
2018-09-27T12:16:55.376Z,29.50
2018-09-27T12:19:23.859Z,29.50
2018-09-27T12:21:52.235Z,29.50
2018-09-27T12:24:20.692Z,29.20
2018-09-27T12:26:49.041Z,29.40
2018-09-27T12:29:17.456Z,29.00
2018-09-27T12:31:45.758Z,28.80
2018-09-27T12:34:14.124Z,28.10
2018-09-27T12:36:42.432Z,28.50
2018-09-27T12:39:12.119Z,28.40
2018-09-27T12:41:40.599Z,28.60
2018-09-27T12:44:08.875Z,28.30
2018-09-27T12:46:37.471Z,27.80
2018-09-27T12:49:05.798Z,27.80
2018-09-27T12:51:34.345Z,27.60
2018-09-27T12:54:02.592Z,27.10
2018-09-27T12:56:31.121Z,23.90
2018-09-27T12:58:59.480Z,23.40
2018-09-27T13:01:27.995Z,24.00
2018-09-27T13:03:57.199Z,23.50
2018-09-27T13:06:25.537Z,23.30
2018-09-27T13:08:53.868Z,22.30
2018-09-27T13:11:22.507Z,23.00
2018-09-27T13:13:50.770Z,24.10
2018-09-27T13:16:19.124Z,25.30
2018-09-27T13:18:47.564Z,24.90
2018-09-27T13:21:15.906Z,26.10
2018-09-27T13:23:44.394Z,26.60
2018-09-27T13:26:12.688Z,27.00
2018-09-27T13:28:41.024Z,27.00
2018-09-27T13:31:09.679Z,27.20
2018-09-27T13:33:38.313Z,27.10
2018-09-27T13:36:06.614Z,27.40
2018-09-27T13:38:34.979Z,27.80
2018-09-27T13:41:03.766Z,28.80
2018-09-27T13:43:32.077Z,28.80
2018-09-27T13:46:00.420Z,28.10
2018-09-27T13:48:28.788Z,27.90
2018-09-27T13:50:57.163Z,27.90
2018-09-27T13:53:25.600Z,28.00
2018-09-27T13:55:53.845Z,27.70
2018-09-27T13:58:22.301Z,27.70
2018-09-27T14:00:50.585Z,27.30
2018-09-27T14:03:19.079Z,27.30
2018-09-27T14:05:47.548Z,27.30
2018-09-27T14:08:15.929Z,26.50
2018-09-27T14:10:44.230Z,26.00
2018-09-27T14:13:12.465Z,26.60
2018-09-27T14:15:40.745Z,27.30
2018-09-27T14:18:09.162Z,27.30
2018-09-27T14:20:37.840Z,27.30
2018-09-27T14:23:06.121Z,27.30
2018-09-27T14:25:34.564Z,27.10
2018-09-27T14:28:02.850Z,26.80
2018-09-27T14:30:31.275Z,27.20
2018-09-27T14:32:59.626Z,28.00
2018-09-27T14:35:27.956Z,29.30
2018-09-27T14:37:56.343Z,29.80
2018-09-27T14:40:24.642Z,29.90
2018-09-27T14:42:53.099Z,30.30
2018-09-27T14:45:21.410Z,30.00
2018-09-27T14:47:49.998Z,30.60
2018-09-27T14:50:18.245Z,31.20
2018-09-27T14:52:46.747Z,30.80
2018-09-27T14:55:15.128Z,30.00
2018-09-27T14:57:43.413Z,30.30
2018-09-27T15:00:11.749Z,29.60
2018-09-27T15:02:40.011Z,29.20
2018-09-27T15:05:08.380Z,29.20
2018-09-27T15:07:36.805Z,28.80
2018-09-27T15:10:05.123Z,28.50
2018-09-27T15:12:34.312Z,28.50
2018-09-27T15:15:02.592Z,28.10
2018-09-27T15:17:31.026Z,28.30
2018-09-27T15:19:59.305Z,27.60
2018-09-27T15:22:28.334Z,28.00
2018-09-27T15:24:57.307Z,28.30
2018-09-27T15:27:26.183Z,27.80
2018-09-27T15:29:54.650Z,26.60
2018-09-27T15:32:23.149Z,26.60
2018-09-27T15:34:51.412Z,27.70
2018-09-27T15:37:19.785Z,28.00
2018-09-27T15:39:48.659Z,27.50
2018-09-27T15:42:16.923Z,28.50
2018-09-27T15:44:45.371Z,28.50
2018-09-27T15:47:13.739Z,28.50
2018-09-27T15:49:42.004Z,28.70
2018-09-27T15:52:10.275Z,29.10
2018-09-27T15:54:38.513Z,29.20
2018-09-27T15:57:07.234Z,29.00
2018-09-27T15:59:35.502Z,29.00
2018-09-27T16:02:04.160Z,29.40
2018-09-27T16:04:32.561Z,29.30
2018-09-27T16:07:00.950Z,29.50
2018-09-27T16:09:29.210Z,29.50
2018-09-27T16:11:57.611Z,29.30
2018-09-27T16:14:25.941Z,29.30
2018-09-27T16:16:54.357Z,29.20
2018-09-27T16:19:22.632Z,29.30
2018-09-27T16:21:51.165Z,29.50
2018-09-27T16:24:19.525Z,29.80
2018-09-27T16:26:47.773Z,30.20
2018-09-27T16:29:16.367Z,30.60
2018-09-27T16:31:44.638Z,30.90
2018-09-27T16:34:13.645Z,31.00
2018-09-27T16:36:42.291Z,30.90
2018-09-27T16:39:10.813Z,31.10
2018-09-27T16:41:39.500Z,31.40
2018-09-27T16:44:08.059Z,31.60
2018-09-27T16:46:36.705Z,31.50
2018-09-27T16:49:05.404Z,30.90
2018-09-27T16:51:34.019Z,31.70
2018-09-27T16:56:37.702Z,31.80
2018-09-27T16:59:05.926Z,31.40
2018-09-27T17:01:34.401Z,31.40
2018-09-27T17:04:02.673Z,31.60
2018-09-27T17:06:31.002Z,31.60
2018-09-27T17:08:59.482Z,31.90
2018-09-27T17:11:27.851Z,31.90
2018-09-27T17:13:56.234Z,32.20
2018-09-27T17:16:24.494Z,33.00
2018-09-27T17:18:52.861Z,32.60
2018-09-27T17:21:21.122Z,33.30
2018-09-27T17:23:49.431Z,33.40
2018-09-27T17:26:17.901Z,34.20
2018-09-27T17:28:46.286Z,34.50
2018-09-27T17:31:14.686Z,34.80
2018-09-27T17:33:42.960Z,35.30
2018-09-27T17:36:11.401Z,36.50
2018-09-27T17:38:40.027Z,36.40
2018-09-27T17:41:09.114Z,37.40
2018-09-27T17:43:37.699Z,38.10
2018-09-27T17:46:06.674Z,39.10
2018-09-27T17:48:34.985Z,39.50
2018-09-27T17:51:03.410Z,40.30
2018-09-27T17:53:36.644Z,40.50
2018-09-27T17:56:05.139Z,41.00
2018-09-27T17:58:33.619Z,42.00
2018-09-27T18:01:01.875Z,42.40
2018-09-27T18:03:30.252Z,42.80
2018-09-27T18:05:58.538Z,43.30
2018-09-27T18:08:26.803Z,43.60
2018-09-27T18:10:55.195Z,44.00
2018-09-27T18:13:23.559Z,44.30
2018-09-27T18:15:51.956Z,44.20
2018-09-27T18:18:20.422Z,45.60
2018-09-27T18:20:48.796Z,45.30
2018-09-27T18:23:17.370Z,45.80
2018-09-27T18:25:45.980Z,46.20
2018-09-27T18:28:14.145Z,46.50
2018-09-27T18:30:42.556Z,46.90
2018-09-27T18:33:10.899Z,47.40
2018-09-27T18:35:39.198Z,47.80
2018-09-27T18:38:07.781Z,48.50
2018-09-27T18:40:35.881Z,48.80
2018-09-27T18:43:04.288Z,49.10
2018-09-27T18:45:32.585Z,49.10
2018-09-27T18:48:00.825Z,49.50
2018-09-27T18:50:29.270Z,49.90
2018-09-27T18:52:57.513Z,50.20
2018-09-27T18:55:27.048Z,50.90
2018-09-27T18:57:55.296Z,51.20
2018-09-27T19:00:23.659Z,51.90
2018-09-27T19:02:51.946Z,52.20
2018-09-27T19:05:20.200Z,52.50
2018-09-27T19:07:48.662Z,52.90
2018-09-27T19:10:16.987Z,53.20
2018-09-27T19:12:45.313Z,53.50
2018-09-27T19:15:13.902Z,53.70
2018-09-27T19:17:42.229Z,54.00
2018-09-27T19:20:10.488Z,54.40
2018-09-27T19:22:38.880Z,54.50
2018-09-27T19:25:07.113Z,54.90
2018-09-27T19:27:36.163Z,55.20
2018-09-27T19:30:04.745Z,55.20
2018-09-27T19:35:11.931Z,55.10
2018-09-27T19:37:40.272Z,55.40
2018-09-27T19:40:08.899Z,55.30
2018-09-27T19:42:37.168Z,55.40
2018-09-27T19:45:05.879Z,55.80
2018-09-27T19:47:34.268Z,55.90
2018-09-27T19:50:02.565Z,56.30
2018-09-27T19:52:31.042Z,56.40
2018-09-27T19:54:59.369Z,56.50
2018-09-27T19:57:28.159Z,56.60
2018-09-27T19:59:57.035Z,57.20
2018-09-27T20:02:25.369Z,57.30
2018-09-27T20:04:53.852Z,57.20
2018-09-27T20:07:22.158Z,57.00
2018-09-27T20:09:50.507Z,57.30
2018-09-27T20:12:18.786Z,57.50
2018-09-27T20:17:21.880Z,57.80
2018-09-27T20:19:50.181Z,58.10
2018-09-27T20:22:18.498Z,58.30
2018-09-27T20:24:46.735Z,58.60
2018-09-27T20:27:15.045Z,58.70
2018-09-27T20:29:44.136Z,58.80
2018-09-27T20:32:12.487Z,59.10
2018-09-27T20:34:41.621Z,59.30
2018-09-27T20:37:09.893Z,59.40
2018-09-27T20:39:38.370Z,59.80
2018-09-27T20:42:06.788Z,59.90
2018-09-27T20:44:35.259Z,59.90
2018-09-27T20:47:03.583Z,59.80
2018-09-27T20:49:31.906Z,59.80
2018-09-27T20:52:00.356Z,59.80
2018-09-27T20:54:29.351Z,59.80
2018-09-27T20:56:57.571Z,60.00
2018-09-27T20:59:25.835Z,60.30
2018-09-27T21:01:54.074Z,60.10
2018-09-27T21:04:22.550Z,60.30
2018-09-27T21:06:50.882Z,60.30
2018-09-27T21:09:19.163Z,60.70
2018-09-27T21:11:47.564Z,60.80
2018-09-27T21:14:15.991Z,60.70
2018-09-27T21:16:44.256Z,60.60
2018-09-27T21:19:12.656Z,60.40
2018-09-27T21:21:41.054Z,60.20
2018-09-27T21:24:09.288Z,60.20
2018-09-27T21:26:37.725Z,60.30
2018-09-27T21:29:06.100Z,60.50
2018-09-27T21:31:34.323Z,60.80
2018-09-27T21:34:02.860Z,61.10
2018-09-27T21:36:31.097Z,61.40
2018-09-27T21:38:59.521Z,61.40
2018-09-27T21:41:27.911Z,61.40
2018-09-27T21:43:56.275Z,61.60
2018-09-27T21:46:24.574Z,62.00
2018-09-27T21:48:52.871Z,62.60
2018-09-27T21:51:21.147Z,62.60
2018-09-27T21:53:49.523Z,62.70
2018-09-27T21:56:17.806Z,62.90
2018-09-27T21:58:46.328Z,63.60
2018-09-27T22:01:14.818Z,64.50
2018-09-27T22:03:43.187Z,64.90
2018-09-27T22:06:11.602Z,65.50
2018-09-27T22:08:40.077Z,65.90
2018-09-27T22:11:08.351Z,65.70
2018-09-27T22:13:36.662Z,65.60
2018-09-27T22:16:04.990Z,65.20
2018-09-27T22:18:33.215Z,64.90
2018-09-27T22:21:01.687Z,64.70
2018-09-27T22:23:29.918Z,64.30
2018-09-27T22:25:58.182Z,64.00
2018-09-27T22:28:26.571Z,64.00
2018-09-27T22:30:54.877Z,64.10
2018-09-27T22:33:23.154Z,64.30
2018-09-27T22:35:51.454Z,64.60
2018-09-27T22:38:19.702Z,64.40
2018-09-27T22:40:48.157Z,64.40
2018-09-27T22:43:16.461Z,64.50
2018-09-27T22:45:44.735Z,64.60
2018-09-27T22:48:13.083Z,64.60
2018-09-27T22:50:41.336Z,64.80
2018-09-27T22:53:09.614Z,64.80
2018-09-27T22:55:38.476Z,65.60
2018-09-27T22:58:06.727Z,66.30
2018-09-27T23:00:35.136Z,66.40
2018-09-27T23:03:03.450Z,66.80
2018-09-27T23:05:31.801Z,67.50
2018-09-27T23:08:00.116Z,67.00
2018-09-27T23:10:28.353Z,67.80
2018-09-27T23:12:56.587Z,67.70
2018-09-27T23:15:24.960Z,67.90
2018-09-27T23:17:53.190Z,67.90
2018-09-27T23:20:21.491Z,67.90
2018-09-27T23:22:49.781Z,68.00
2018-09-27T23:25:18.066Z,67.70
2018-09-27T23:27:46.406Z,67.20
2018-09-27T23:30:14.825Z,67.00
2018-09-27T23:32:43.025Z,66.50
2018-09-27T23:35:11.337Z,66.50
2018-09-27T23:37:39.729Z,66.30
2018-09-27T23:40:07.982Z,66.20
2018-09-27T23:42:36.214Z,66.20
2018-09-27T23:45:04.727Z,66.20
2018-09-27T23:47:33.041Z,65.30
2018-09-27T23:50:01.531Z,65.20
2018-09-27T23:52:30.004Z,64.70
2018-09-27T23:54:58.222Z,64.60
2018-09-27T23:57:26.464Z,64.30
2018-09-27T23:59:54.697Z,64.00
